createdAt,value
2022-10-24T00:01:58.793Z,45.32
2022-10-24T00:04:27.888Z,45.21
2022-10-24T00:06:55.856Z,45.10
2022-10-24T00:09:25.211Z,45.24
2022-10-24T00:11:53.156Z,45.24
2022-10-24T00:14:22.485Z,45.42
2022-10-24T00:16:51.380Z,45.36
2022-10-24T00:19:19.368Z,44.99
2022-10-24T00:21:48.978Z,45.26
2022-10-24T00:24:16.944Z,45.26
2022-10-24T00:26:45.976Z,45.13
2022-10-24T00:29:15.058Z,45.17
2022-10-24T00:31:45.586Z,45.46
2022-10-24T00:34:14.880Z,45.38
2022-10-24T00:36:43.831Z,45.40
2022-10-24T00:39:13.907Z,45.20
2022-10-24T00:41:43.912Z,45.24
2022-10-24T00:44:25.695Z,45.34
2022-10-24T00:46:56.499Z,45.45
2022-10-24T00:49:27.776Z,45.43
2022-10-24T00:51:59.559Z,45.24
2022-10-24T00:54:28.846Z,45.53
2022-10-24T00:57:01.428Z,45.69
2022-10-24T00:59:30.990Z,45.61
2022-10-24T01:02:00.326Z,45.75
2022-10-24T01:04:28.273Z,45.72
2022-10-24T01:07:03.658Z,45.47
2022-10-24T01:09:41.538Z,45.65
2022-10-24T01:12:17.724Z,45.66
2022-10-24T01:14:49.373Z,45.43
2022-10-24T01:17:20.410Z,45.37
2022-10-24T01:20:13.042Z,45.52
2022-10-24T01:22:45.344Z,45.58
2022-10-24T01:25:15.150Z,45.56
2022-10-24T01:27:49.649Z,45.59
2022-10-24T01:30:19.000Z,45.70
2022-10-24T01:32:49.728Z,45.68
2022-10-24T01:35:24.996Z,45.56
2022-10-24T01:37:55.752Z,45.58
2022-10-24T01:40:25.143Z,45.66
2022-10-24T01:42:53.325Z,45.80
2022-10-24T01:45:25.000Z,45.71
2022-10-24T01:47:54.541Z,45.56
2022-10-24T01:50:22.573Z,45.73
2022-10-24T01:52:50.528Z,45.92
2022-10-24T01:55:18.501Z,45.71
2022-10-24T01:57:46.460Z,45.77
2022-10-24T02:00:17.151Z,45.76
2022-10-24T02:02:47.452Z,45.74
2022-10-24T02:05:17.023Z,45.74
2022-10-24T02:07:46.099Z,45.93
2022-10-24T02:10:16.640Z,45.70
2022-10-24T02:12:46.038Z,45.84
2022-10-24T02:15:15.940Z,45.89
2022-10-24T02:17:44.092Z,45.63
2022-10-24T02:20:13.907Z,45.73
2022-10-24T02:22:46.089Z,45.81
2022-10-24T02:25:16.260Z,45.94
2022-10-24T02:27:46.620Z,45.95
2022-10-24T02:30:15.856Z,45.76
2022-10-24T02:32:44.721Z,45.97
2022-10-24T02:35:14.464Z,45.97
2022-10-24T02:37:44.868Z,45.70
2022-10-24T02:40:13.831Z,45.97
2022-10-24T02:42:41.827Z,46.10
2022-10-24T02:45:11.052Z,45.81
2022-10-24T02:47:39.357Z,45.97
2022-10-24T02:50:08.218Z,46.21
2022-10-24T02:52:37.654Z,45.95
2022-10-24T02:55:06.613Z,46.05
2022-10-24T02:57:34.647Z,45.82
2022-10-24T03:00:02.583Z,45.86
2022-10-24T03:02:30.520Z,45.92
2022-10-24T03:04:58.812Z,46.11
2022-10-24T03:07:26.804Z,46.17
2022-10-24T03:09:56.158Z,45.96
2022-10-24T03:12:24.300Z,46.08
2022-10-24T03:14:52.196Z,46.01
2022-10-24T03:17:20.138Z,46.22
2022-10-24T03:19:48.150Z,46.17
2022-10-24T03:22:16.089Z,45.91
2022-10-24T03:24:54.785Z,46.08
2022-10-24T03:27:24.764Z,46.42
2022-10-24T03:29:52.758Z,45.99
2022-10-24T03:32:20.741Z,46.43
2022-10-24T03:34:48.771Z,46.37
2022-10-24T03:37:16.702Z,46.17
2022-10-24T03:39:44.668Z,46.35
2022-10-24T03:42:12.666Z,46.27
2022-10-24T03:44:42.046Z,46.42
2022-10-24T03:47:10.728Z,46.30
2022-10-24T03:49:38.758Z,46.36
2022-10-24T03:52:06.867Z,46.26
2022-10-24T03:54:35.666Z,46.56
2022-10-24T03:57:03.644Z,46.36
2022-10-24T03:59:31.575Z,46.35
2022-10-24T04:02:01.725Z,46.45
2022-10-24T04:04:29.861Z,46.65
2022-10-24T04:06:58.642Z,46.40
2022-10-24T04:09:26.576Z,46.52
2022-10-24T04:11:54.606Z,46.55
2022-10-24T04:14:22.577Z,46.23
2022-10-24T04:16:50.652Z,46.53
2022-10-24T04:19:20.082Z,46.48
2022-10-24T04:21:48.261Z,46.54
2022-10-24T04:24:17.040Z,46.23
2022-10-24T04:26:45.064Z,46.62
2022-10-24T04:29:13.078Z,46.34
2022-10-24T04:31:41.142Z,46.45
2022-10-24T04:34:09.101Z,46.21
2022-10-24T04:36:38.505Z,46.45
2022-10-24T04:39:06.413Z,46.29
2022-10-24T04:41:34.378Z,46.28
2022-10-24T04:44:02.398Z,46.29
2022-10-24T04:46:30.356Z,46.26
2022-10-24T04:48:58.265Z,46.62
2022-10-24T04:51:26.221Z,46.36
2022-10-24T04:53:55.596Z,46.70
2022-10-24T04:56:25.956Z,46.73
2022-10-24T04:58:53.887Z,46.50
2022-10-24T05:01:21.879Z,46.72
2022-10-24T05:03:49.900Z,46.57
2022-10-24T05:06:18.028Z,46.50
2022-10-24T05:08:45.963Z,46.53
2022-10-24T05:11:15.305Z,46.57
2022-10-24T05:13:43.345Z,46.74
2022-10-24T05:16:11.311Z,46.77
2022-10-24T05:18:39.279Z,46.60
2022-10-24T05:21:07.203Z,46.69
2022-10-24T05:23:35.115Z,46.78
2022-10-24T05:26:03.052Z,46.64
2022-10-24T05:28:32.424Z,46.83
2022-10-24T05:34:51.385Z,46.75
2022-10-24T05:37:19.496Z,47.07
2022-10-24T05:39:47.455Z,46.65
2022-10-24T05:42:15.420Z,46.77
2022-10-24T05:52:46.215Z,46.71
2022-10-24T05:55:17.985Z,46.73
2022-10-24T05:57:46.894Z,47.09
2022-10-24T06:04:07.880Z,47.26
2022-10-24T06:06:39.825Z,46.95
2022-10-24T06:09:09.233Z,46.86
2022-10-24T06:11:37.147Z,46.97
2022-10-24T06:14:06.114Z,47.20
2022-10-24T06:24:17.931Z,47.20
2022-10-24T06:26:45.880Z,47.01
2022-10-24T06:29:13.815Z,47.33
2022-10-24T06:59:11.965Z,47.65
2022-10-24T07:01:40.026Z,47.63
2022-10-24T07:04:08.049Z,47.70
2022-10-24T07:06:36.045Z,48.07
2022-10-24T07:09:04.548Z,48.16
2022-10-24T07:11:32.498Z,48.02
2022-10-24T07:14:01.574Z,47.75
2022-10-24T07:24:34.067Z,47.82
2022-10-24T07:27:01.987Z,47.64
2022-10-24T07:29:29.985Z,48.05
2022-10-24T07:32:35.647Z,47.98
2022-10-24T07:35:03.314Z,47.80
2022-10-24T07:37:31.278Z,47.92
2022-10-24T07:40:00.581Z,47.72
2022-10-24T07:42:29.006Z,47.78
2022-10-24T07:49:36.954Z,47.84
2022-10-24T07:52:04.860Z,47.83
2022-10-24T07:54:36.225Z,47.86
2022-10-24T07:57:06.830Z,47.54
2022-10-24T07:59:42.289Z,47.41
2022-10-24T08:02:11.765Z,47.63
2022-10-24T08:04:39.716Z,47.54
2022-10-24T08:07:13.076Z,47.43
2022-10-24T08:09:41.420Z,47.65
2022-10-24T08:12:10.801Z,47.60
2022-10-24T08:14:39.030Z,47.51
2022-10-24T08:17:07.115Z,47.18
2022-10-24T08:19:35.124Z,47.53
2022-10-24T08:22:03.305Z,47.33
2022-10-24T08:24:31.301Z,47.45
2022-10-24T08:26:59.432Z,47.05
2022-10-24T08:29:28.879Z,47.23
2022-10-24T08:31:57.220Z,46.95
2022-10-24T08:34:25.196Z,47.24
2022-10-24T08:36:53.256Z,47.12
2022-10-24T08:39:21.316Z,47.01
2022-10-24T08:41:56.675Z,46.96
2022-10-24T08:44:35.817Z,46.79
2022-10-24T08:47:08.196Z,46.81
2022-10-24T08:49:38.887Z,46.68
2022-10-24T08:52:13.063Z,46.45
2022-10-24T08:54:42.199Z,46.54
2022-10-24T08:57:10.915Z,46.61
2022-10-24T08:59:40.276Z,46.47
2022-10-24T09:02:15.165Z,46.40
2022-10-24T09:04:46.668Z,46.47
2022-10-24T09:07:17.132Z,46.38
2022-10-24T09:09:46.902Z,46.49
2022-10-24T09:12:15.775Z,46.45
2022-10-24T09:14:47.081Z,46.06
2022-10-24T09:19:51.833Z,46.79
2022-10-24T09:22:19.826Z,46.20
2022-10-24T09:24:50.519Z,46.23
2022-10-24T09:29:54.655Z,46.51
2022-10-24T09:32:23.460Z,46.47
2022-10-24T09:34:51.497Z,46.60
2022-10-24T09:37:42.549Z,46.52
2022-10-24T09:40:19.079Z,46.65
2022-10-24T09:42:52.492Z,46.67
2022-10-24T09:45:36.850Z,46.61
2022-10-24T09:48:06.193Z,46.51
2022-10-24T09:50:35.389Z,46.63
2022-10-24T09:53:04.260Z,46.92
2022-10-24T09:55:34.349Z,47.00
2022-10-24T09:58:05.541Z,46.55
2022-10-24T10:00:35.874Z,46.35
2022-10-24T10:03:05.535Z,46.43
2022-10-24T10:05:44.540Z,46.45
2022-10-24T10:08:14.251Z,46.53
2022-10-24T10:10:42.220Z,46.48
2022-10-24T10:13:22.936Z,46.26
2022-10-24T10:15:53.637Z,46.21
2022-10-24T10:18:36.211Z,46.25
2022-10-24T10:21:10.099Z,46.12
2022-10-24T10:23:39.516Z,46.30
2022-10-24T10:26:12.931Z,46.23
2022-10-24T10:28:44.464Z,46.17
2022-10-24T10:31:20.545Z,46.20
2022-10-24T10:33:54.698Z,46.16
2022-10-24T10:36:25.023Z,46.14
2022-10-24T10:38:53.437Z,46.04
2022-10-24T10:41:34.846Z,46.06
2022-10-24T10:44:14.865Z,46.43
2022-10-24T10:46:45.928Z,46.36
2022-10-24T10:49:16.819Z,46.69
2022-10-24T10:51:45.595Z,46.56
2022-10-24T10:54:21.894Z,46.86
2022-10-24T10:56:51.113Z,46.85
2022-10-24T10:59:36.307Z,46.97
2022-10-24T11:02:16.671Z,46.58
2022-10-24T11:04:46.689Z,46.69
2022-10-24T11:07:17.003Z,46.61
2022-10-24T11:09:45.385Z,46.58
2022-10-24T11:12:16.197Z,46.52
2022-10-24T11:14:45.510Z,46.46
2022-10-24T11:17:18.029Z,46.43
2022-10-24T11:20:02.941Z,46.56
2022-10-24T11:22:31.035Z,46.63
2022-10-24T11:25:01.520Z,46.55
2022-10-24T11:27:32.893Z,46.62
2022-10-24T11:30:05.217Z,46.42
2022-10-24T11:32:36.730Z,46.39
2022-10-24T11:35:07.343Z,46.37
2022-10-24T11:37:36.976Z,46.49
2022-10-24T11:40:06.226Z,46.45
2022-10-24T11:42:36.357Z,46.50
2022-10-24T11:45:06.820Z,46.45
2022-10-24T11:48:05.963Z,46.33
2022-10-24T11:50:39.323Z,46.25
2022-10-24T11:53:16.038Z,46.31
2022-10-24T11:55:47.181Z,46.40
2022-10-24T11:58:16.083Z,46.07
2022-10-24T12:01:03.701Z,46.19
2022-10-24T12:04:01.795Z,46.08
2022-10-24T12:06:43.471Z,46.05
2022-10-24T12:09:37.813Z,46.06
2022-10-24T12:12:17.923Z,45.94
2022-10-24T12:15:00.953Z,45.76
2022-10-24T12:17:36.498Z,45.85
2022-10-24T12:20:06.879Z,45.71
2022-10-24T12:22:38.297Z,45.76
2022-10-24T12:25:08.087Z,45.83
2022-10-24T12:27:37.799Z,45.87
2022-10-24T12:30:15.706Z,46.03
2022-10-24T12:32:46.121Z,45.88
2022-10-24T12:35:51.835Z,45.86
2022-10-24T12:39:08.249Z,45.92
2022-10-24T12:41:46.367Z,45.96
2022-10-24T12:44:41.356Z,45.83
2022-10-24T12:47:35.349Z,45.85
2022-10-24T12:50:40.855Z,45.82
2022-10-24T12:53:31.685Z,45.68
2022-10-24T12:56:07.733Z,45.57
2022-10-24T12:58:37.286Z,45.41
2022-10-24T13:01:06.531Z,45.28
2022-10-24T13:04:03.103Z,45.05
2022-10-24T13:06:33.149Z,45.65
2022-10-24T13:09:14.453Z,46.39
2022-10-24T13:11:54.018Z,46.87
2022-10-24T13:14:32.573Z,46.59
2022-10-24T13:17:03.474Z,46.32
2022-10-24T13:19:31.508Z,47.71
2022-10-24T13:21:59.859Z,47.35
2022-10-24T13:24:34.840Z,47.33
2022-10-24T13:27:39.103Z,48.28
2022-10-24T13:30:27.102Z,47.93
2022-10-24T13:33:28.865Z,47.42
2022-10-24T13:35:56.925Z,47.81
2022-10-24T13:38:25.078Z,48.40
2022-10-24T13:40:53.078Z,47.21
2022-10-24T13:43:21.109Z,47.31
2022-10-24T13:45:56.713Z,47.31
2022-10-24T13:48:25.344Z,47.87
2022-10-24T13:50:57.917Z,47.56
2022-10-24T13:53:30.906Z,47.30
2022-10-24T13:55:59.413Z,47.66
2022-10-24T13:58:27.532Z,47.82
2022-10-24T14:00:58.844Z,48.41
2022-10-24T14:03:27.938Z,47.50
2022-10-24T14:05:57.032Z,48.47
2022-10-24T14:08:27.313Z,48.46
2022-10-24T14:10:55.540Z,48.83
2022-10-24T14:16:11.577Z,48.67
2022-10-24T14:18:41.416Z,48.07
2022-10-24T14:21:17.800Z,47.49
2022-10-24T14:23:57.175Z,47.78
2022-10-24T14:26:25.324Z,48.32
2022-10-24T14:28:58.833Z,47.88
2022-10-24T14:31:31.110Z,48.17
2022-10-24T14:33:59.709Z,48.85
2022-10-24T14:36:29.403Z,48.85
2022-10-24T14:38:59.809Z,48.63
2022-10-24T14:41:29.977Z,48.61
2022-10-24T14:43:59.361Z,49.03
2022-10-24T14:46:35.338Z,48.83
2022-10-24T14:49:14.804Z,48.19
2022-10-24T14:51:43.320Z,48.22
2022-10-24T14:54:17.445Z,48.47
2022-10-24T14:56:45.430Z,48.24
2022-10-24T14:59:22.577Z,48.11
2022-10-24T15:01:56.892Z,48.51
2022-10-24T15:04:32.787Z,49.08
2022-10-24T15:07:05.992Z,48.70
2022-10-24T15:09:34.610Z,48.95
2022-10-24T15:12:03.147Z,49.59
2022-10-24T15:14:40.038Z,49.00
2022-10-24T15:17:25.817Z,48.14
2022-10-24T15:19:57.959Z,48.26
2022-10-24T15:22:28.091Z,49.02
2022-10-24T15:24:57.354Z,49.45
2022-10-24T15:27:27.404Z,49.29
2022-10-24T15:29:55.856Z,48.59
2022-10-24T15:32:26.511Z,49.28
2022-10-24T15:34:56.121Z,49.04
2022-10-24T15:37:25.071Z,49.79
2022-10-24T15:39:54.492Z,48.70
2022-10-24T15:42:22.885Z,49.18
2022-10-24T15:44:51.455Z,49.32
2022-10-24T15:47:23.779Z,49.77
2022-10-24T15:49:53.872Z,49.37
2022-10-24T15:52:21.798Z,50.00
2022-10-24T15:54:50.580Z,50.27
2022-10-24T15:57:18.564Z,49.63
2022-10-24T15:59:47.774Z,49.17
2022-10-24T16:02:17.376Z,49.84
2022-10-24T16:04:46.997Z,49.33
2022-10-24T16:07:16.329Z,49.61
2022-10-24T16:09:44.848Z,49.42
2022-10-24T16:12:12.963Z,49.25
2022-10-24T16:14:40.952Z,49.55
2022-10-24T16:17:09.566Z,49.25
2022-10-24T16:19:37.499Z,48.72
2022-10-24T16:22:06.160Z,49.07
2022-10-24T16:24:35.490Z,48.90
2022-10-24T16:27:04.320Z,49.01
2022-10-24T16:29:34.170Z,49.04
2022-10-24T16:32:02.915Z,49.17
2022-10-24T16:34:30.886Z,49.15
2022-10-24T16:36:59.513Z,48.95
2022-10-24T16:39:27.504Z,49.41
2022-10-24T16:42:00.096Z,49.35
2022-10-24T16:44:28.528Z,48.97
2022-10-24T16:46:57.190Z,49.07
2022-10-24T16:49:25.099Z,48.92
2022-10-24T16:51:53.758Z,49.33
2022-10-24T16:54:22.913Z,49.24
2022-10-24T16:56:53.840Z,49.18
2022-10-24T16:59:26.944Z,49.00
2022-10-24T17:01:55.731Z,48.83
2022-10-24T17:04:23.707Z,49.89
2022-10-24T17:06:52.427Z,49.06
2022-10-24T17:09:20.427Z,48.88
2022-10-24T17:11:49.073Z,49.16
2022-10-24T17:14:17.005Z,49.20
2022-10-24T17:16:47.072Z,49.33
2022-10-24T17:19:16.632Z,49.29
2022-10-24T17:21:48.226Z,49.53
2022-10-24T17:24:17.394Z,49.23
2022-10-24T17:26:46.187Z,49.35
2022-10-24T17:29:14.297Z,49.24
2022-10-24T17:31:43.133Z,49.45
2022-10-24T17:34:13.458Z,48.73
2022-10-24T17:36:42.247Z,48.81
2022-10-24T17:39:13.399Z,49.17
2022-10-24T17:41:42.310Z,49.27
2022-10-24T17:44:13.586Z,49.81
2022-10-24T17:46:42.562Z,48.75
2022-10-24T17:49:11.361Z,48.75
2022-10-24T17:51:42.738Z,48.78
2022-10-24T17:54:11.035Z,48.52
2022-10-24T17:56:43.196Z,48.87
2022-10-24T17:59:13.308Z,49.24
2022-10-24T18:01:43.337Z,48.72
2022-10-24T18:04:11.390Z,49.27
2022-10-24T18:06:43.452Z,49.68
2022-10-24T18:09:14.566Z,49.25
2022-10-24T18:11:45.153Z,49.04
2022-10-24T18:14:13.107Z,49.18
2022-10-24T18:16:41.780Z,49.21
2022-10-24T18:19:10.236Z,49.24
2022-10-24T18:21:40.201Z,49.27
2022-10-24T18:24:10.066Z,48.88
2022-10-24T18:26:38.731Z,49.16
2022-10-24T18:29:06.727Z,49.67
2022-10-24T18:31:35.868Z,49.28
2022-10-24T18:34:06.145Z,49.53
2022-10-24T18:36:37.704Z,49.38
2022-10-24T18:39:05.945Z,49.41
2022-10-24T18:41:44.809Z,49.56
2022-10-24T18:44:26.677Z,49.10
2022-10-24T18:46:56.279Z,49.07
2022-10-24T18:49:24.667Z,48.91
2022-10-24T18:52:00.160Z,49.17
2022-10-24T18:54:28.294Z,48.67
2022-10-24T18:56:59.716Z,48.71
2022-10-24T18:59:30.851Z,48.91
2022-10-24T19:02:09.528Z,48.91
2022-10-24T19:04:37.531Z,48.57
2022-10-24T19:07:06.708Z,49.01
2022-10-24T19:09:34.757Z,48.76
2022-10-24T19:12:05.251Z,48.66
2022-10-24T19:14:33.535Z,48.65
2022-10-24T19:17:02.225Z,48.59
2022-10-24T19:21:59.841Z,49.04
2022-10-24T19:24:27.861Z,48.73
2022-10-24T19:26:57.188Z,48.27
2022-10-24T19:29:26.597Z,48.17
2022-10-24T19:31:55.265Z,48.41
2022-10-24T19:34:23.225Z,48.37
2022-10-24T19:36:52.289Z,48.16
2022-10-24T19:39:23.169Z,48.33
2022-10-24T19:41:51.959Z,48.35
2022-10-24T19:44:20.860Z,48.40
2022-10-24T19:46:50.173Z,48.60
2022-10-24T19:49:18.851Z,48.26
2022-10-24T19:51:46.875Z,48.37
2022-10-24T19:54:15.644Z,48.47
2022-10-24T19:56:43.707Z,48.37
2022-10-24T19:59:13.071Z,48.40
2022-10-24T20:01:42.450Z,48.46
2022-10-24T20:04:12.727Z,48.30
2022-10-24T20:06:40.886Z,48.39
2022-10-24T20:09:09.594Z,48.10
2022-10-24T20:11:37.503Z,48.31
2022-10-24T20:14:06.233Z,48.14
2022-10-24T20:16:34.623Z,48.60
2022-10-24T20:19:04.630Z,48.47
2022-10-24T20:21:34.163Z,48.45
2022-10-24T20:24:02.978Z,48.19
2022-10-24T20:26:30.956Z,48.36
2022-10-24T20:28:59.809Z,48.53
2022-10-24T20:31:29.149Z,48.23
2022-10-24T20:34:05.017Z,48.31
2022-10-24T20:36:37.355Z,48.12
2022-10-24T20:39:07.112Z,48.20
2022-10-24T20:41:35.377Z,48.06
2022-10-24T20:44:05.454Z,48.12
2022-10-24T20:46:33.404Z,48.12
2022-10-24T20:49:03.269Z,47.89
2022-10-24T20:51:31.216Z,48.10
2022-10-24T20:54:01.451Z,47.97
2022-10-24T20:56:29.556Z,48.05
2022-10-24T20:59:01.360Z,47.89
2022-10-24T21:01:30.191Z,48.14
2022-10-24T21:04:00.379Z,47.98
2022-10-24T21:06:29.026Z,47.95
2022-10-24T21:08:58.389Z,47.86
2022-10-24T21:11:28.511Z,48.12
2022-10-24T21:13:58.266Z,48.00
2022-10-24T21:16:26.543Z,47.87
2022-10-24T21:18:55.219Z,47.70
2022-10-24T21:21:23.399Z,48.39
2022-10-24T21:23:52.620Z,47.92
2022-10-24T21:26:20.506Z,47.96
2022-10-24T21:28:53.876Z,48.13
2022-10-24T21:31:24.945Z,47.78
2022-10-24T21:33:53.770Z,47.63
2022-10-24T21:36:22.886Z,48.19
2022-10-24T21:38:52.961Z,47.59
2022-10-24T21:41:21.547Z,47.68
2022-10-24T21:43:54.530Z,48.41
2022-10-24T21:46:23.225Z,48.12
2022-10-24T21:48:51.815Z,47.78
2022-10-24T21:51:20.429Z,47.63
2022-10-24T21:53:49.486Z,48.00
2022-10-24T21:56:18.357Z,47.86
2022-10-24T21:58:47.851Z,47.80
2022-10-24T22:01:19.092Z,47.65
2022-10-24T22:03:47.400Z,47.56
2022-10-24T22:06:16.358Z,47.47
2022-10-24T22:08:44.433Z,47.89
2022-10-24T22:11:14.042Z,47.67
2022-10-24T22:13:42.192Z,47.47
2022-10-24T22:16:10.919Z,47.75
2022-10-24T22:18:40.269Z,47.41
2022-10-24T22:21:09.926Z,47.59
2022-10-24T22:23:38.331Z,47.59
2022-10-24T22:26:06.279Z,47.43
2022-10-24T22:28:34.204Z,47.52
2022-10-24T22:31:02.618Z,47.46
2022-10-24T22:33:32.634Z,47.43
2022-10-24T22:36:04.627Z,47.21
2022-10-24T22:38:32.879Z,47.39
2022-10-24T22:41:01.448Z,47.61
2022-10-24T22:43:29.860Z,47.38
2022-10-24T22:46:01.279Z,47.02
2022-10-24T22:48:30.063Z,47.36
2022-10-24T22:50:58.276Z,47.43
2022-10-24T22:53:28.661Z,47.01
2022-10-24T22:56:06.128Z,47.36
2022-10-24T22:58:34.551Z,47.10
2022-10-24T23:01:05.045Z,47.03
2022-10-24T23:03:38.324Z,47.34
2022-10-24T23:06:08.529Z,47.36
2022-10-24T23:08:39.136Z,47.33
2022-10-24T23:11:07.925Z,47.22
2022-10-24T23:13:36.366Z,47.10
2022-10-24T23:16:08.219Z,47.30
2022-10-24T23:18:36.606Z,47.19
2022-10-24T23:21:08.489Z,46.95
2022-10-24T23:23:38.208Z,47.16
2022-10-24T23:26:09.367Z,47.11
2022-10-24T23:28:40.033Z,47.04
2022-10-24T23:31:08.563Z,47.12
2022-10-24T23:33:37.123Z,47.02
2022-10-24T23:36:05.695Z,46.97
2022-10-24T23:38:34.245Z,46.88
2022-10-24T23:41:04.323Z,47.07
2022-10-24T23:43:32.828Z,46.81
2022-10-24T23:46:01.462Z,47.04
2022-10-24T23:48:42.760Z,46.77
2022-10-24T23:51:11.794Z,47.16
2022-10-24T23:53:48.923Z,47.01
2022-10-24T23:56:19.132Z,46.85
2022-10-24T23:58:47.121Z,46.83
